createdAt,value
2022-09-17T00:01:33.356Z,8.56
2022-09-17T00:04:04.522Z,8.60
2022-09-17T00:06:35.732Z,8.66
2022-09-17T00:09:07.347Z,8.72
2022-09-17T00:11:38.115Z,8.75
2022-09-17T00:14:07.902Z,8.83
2022-09-17T00:16:39.263Z,8.87
2022-09-17T00:19:12.581Z,8.91
2022-09-17T00:21:41.649Z,8.93
2022-09-17T00:24:12.790Z,8.94
2022-09-17T00:26:41.666Z,8.94
2022-09-17T00:29:10.483Z,8.96
2022-09-17T00:31:39.674Z,8.97
2022-09-17T00:34:08.560Z,8.99
2022-09-17T00:36:38.141Z,9.02
2022-09-17T00:39:08.207Z,9.07
2022-09-17T00:41:37.988Z,9.12
2022-09-17T00:44:44.181Z,9.19
2022-09-17T00:47:24.179Z,9.23
2022-09-17T00:49:57.888Z,9.32
2022-09-17T00:52:41.062Z,9.38
2022-09-17T00:55:23.893Z,9.43
2022-09-17T00:57:54.992Z,9.53
2022-09-17T01:00:23.157Z,9.57
2022-09-17T01:02:54.423Z,9.67
2022-09-17T01:05:29.831Z,9.72
2022-09-17T01:08:24.688Z,9.77
2022-09-17T01:11:11.129Z,9.81
2022-09-17T01:14:01.945Z,9.84
2022-09-17T01:16:48.685Z,9.86
2022-09-17T01:19:23.208Z,9.86
2022-09-17T01:22:11.197Z,9.89
2022-09-17T01:25:00.628Z,9.89
2022-09-17T01:28:11.194Z,9.88
2022-09-17T01:30:46.006Z,9.88
2022-09-17T01:33:52.399Z,9.89
2022-09-17T01:36:38.494Z,9.90
2022-09-17T01:39:26.634Z,9.89
2022-09-17T01:42:06.558Z,9.83
2022-09-17T01:44:45.310Z,9.83
2022-09-17T01:47:20.920Z,9.84
2022-09-17T01:49:51.694Z,9.84
2022-09-17T01:52:20.874Z,9.85
2022-09-17T01:54:54.591Z,9.85
2022-09-17T01:57:53.080Z,9.84
2022-09-17T02:00:22.230Z,9.82
2022-09-17T02:03:13.083Z,9.82
2022-09-17T02:05:46.677Z,9.83
2022-09-17T02:08:23.345Z,9.84
2022-09-17T02:11:01.156Z,9.82
2022-09-17T02:13:36.908Z,9.79
2022-09-17T02:16:17.152Z,9.81
2022-09-17T02:19:23.014Z,9.83
2022-09-17T02:21:53.850Z,9.82
2022-09-17T02:24:41.674Z,9.81
2022-09-17T02:27:22.677Z,9.83
2022-09-17T02:29:51.372Z,9.77
2022-09-17T02:32:19.227Z,9.76
2022-09-17T02:34:47.787Z,9.75
2022-09-17T02:37:15.664Z,9.73
2022-09-17T02:39:43.953Z,9.71
2022-09-17T02:42:32.089Z,9.68
2022-09-17T02:45:36.995Z,9.67
2022-09-17T02:48:20.209Z,9.67
2022-09-17T02:51:16.414Z,9.63
2022-09-17T02:53:59.425Z,9.62
2022-09-17T02:56:46.421Z,9.64
2022-09-17T02:59:26.891Z,9.62
2022-09-17T03:02:18.512Z,9.60
2022-09-17T03:04:49.334Z,9.60
2022-09-17T03:07:19.866Z,9.60
2022-09-17T03:09:47.898Z,9.61
2022-09-17T03:12:16.648Z,9.61
2022-09-17T03:14:44.572Z,9.61
2022-09-17T03:17:12.655Z,9.57
2022-09-17T03:19:40.464Z,9.55
2022-09-17T03:22:08.396Z,9.56
2022-09-17T03:24:36.776Z,9.58
2022-09-17T03:27:04.805Z,9.59
2022-09-17T03:29:32.612Z,9.58
2022-09-17T03:32:01.222Z,9.59
2022-09-17T03:34:29.060Z,9.60
2022-09-17T03:36:56.920Z,9.60
2022-09-17T03:39:25.150Z,9.60
2022-09-17T03:41:52.982Z,9.61
2022-09-17T03:44:23.119Z,9.63
2022-09-17T03:46:51.307Z,9.65
2022-09-17T03:49:19.342Z,9.67
2022-09-17T03:51:47.181Z,9.69
2022-09-17T03:54:15.030Z,9.69
2022-09-17T03:56:42.976Z,9.69
2022-09-17T03:59:10.974Z,9.72
2022-09-17T04:01:39.815Z,9.72
2022-09-17T04:04:08.095Z,9.73
2022-09-17T04:06:36.209Z,9.71
2022-09-17T04:09:05.574Z,9.72
2022-09-17T04:11:33.452Z,9.72
2022-09-17T04:14:01.354Z,9.71
2022-09-17T04:16:29.637Z,9.70
2022-09-17T04:18:57.608Z,9.68
2022-09-17T04:21:25.412Z,9.67
2022-09-17T04:23:53.706Z,9.66
2022-09-17T04:26:21.591Z,9.67
2022-09-17T04:28:49.472Z,9.68
2022-09-17T04:31:17.342Z,9.69
2022-09-17T04:33:45.195Z,9.68
2022-09-17T04:36:12.977Z,9.69
2022-09-17T04:38:40.847Z,9.70
2022-09-17T04:41:09.179Z,9.71
2022-09-17T04:43:37.126Z,9.72
2022-09-17T04:46:05.210Z,9.73
2022-09-17T04:48:33.021Z,9.76
2022-09-17T04:51:01.047Z,9.77
2022-09-17T04:53:29.011Z,9.80
2022-09-17T04:55:56.804Z,9.81
2022-09-17T04:58:24.690Z,9.89
2022-09-17T05:00:52.626Z,9.91
2022-09-17T05:03:20.548Z,9.92
2022-09-17T05:05:48.336Z,9.93
2022-09-17T05:08:16.179Z,9.94
2022-09-17T05:10:43.984Z,9.96
2022-09-17T05:13:11.785Z,9.97
2022-09-17T05:15:39.815Z,9.97
2022-09-17T05:18:08.103Z,10.00
2022-09-17T05:20:35.945Z,10.04
2022-09-17T05:23:04.281Z,10.03
2022-09-17T05:25:32.609Z,10.07
2022-09-17T05:28:01.425Z,10.11
2022-09-17T05:30:30.510Z,10.18
2022-09-17T05:33:03.217Z,10.28
2022-09-17T05:35:32.389Z,10.34
2022-09-17T05:38:02.315Z,10.33
2022-09-17T05:40:31.616Z,10.33
2022-09-17T05:43:01.511Z,10.38
2022-09-17T05:45:34.225Z,10.39
2022-09-17T05:48:03.709Z,10.41
2022-09-17T05:50:31.980Z,10.44
2022-09-17T05:53:07.558Z,10.45
2022-09-17T05:55:35.783Z,10.46
2022-09-17T05:58:12.402Z,10.47
2022-09-17T06:00:41.900Z,10.49
2022-09-17T06:03:14.540Z,10.49
2022-09-17T06:05:43.051Z,10.52
2022-09-17T06:08:10.936Z,10.58
2022-09-17T06:10:40.017Z,10.74
2022-09-17T06:13:07.894Z,10.80
2022-09-17T06:15:36.064Z,10.92
2022-09-17T06:18:03.943Z,11.13
2022-09-17T06:20:31.990Z,11.26
2022-09-17T06:22:59.956Z,11.38
2022-09-17T06:25:29.580Z,11.40
2022-09-17T06:27:57.520Z,11.46
2022-09-17T06:30:25.437Z,11.46
2022-09-17T06:32:53.737Z,11.45
2022-09-17T06:35:21.642Z,11.48
2022-09-17T06:37:49.516Z,11.51
2022-09-17T06:40:17.924Z,11.39
2022-09-17T06:42:46.062Z,11.33
2022-09-17T06:45:16.766Z,11.28
2022-09-17T06:47:45.376Z,11.13
2022-09-17T06:50:13.693Z,11.07
2022-09-17T06:52:49.458Z,11.04
2022-09-17T06:55:17.907Z,11.09
2022-09-17T06:57:46.368Z,11.18
2022-09-17T07:00:15.409Z,11.26
2022-09-17T07:02:43.331Z,11.19
2022-09-17T07:05:11.207Z,11.17
2022-09-17T07:07:39.278Z,11.17
2022-09-17T07:10:07.842Z,11.16
2022-09-17T07:12:40.790Z,11.19
2022-09-17T07:15:11.469Z,11.18
2022-09-17T07:17:40.710Z,11.21
2022-09-17T07:20:09.632Z,11.24
2022-09-17T07:22:37.645Z,11.21
2022-09-17T07:25:06.444Z,11.25
2022-09-17T07:27:34.417Z,11.35
2022-09-17T07:30:02.825Z,11.43
2022-09-17T07:32:31.521Z,11.43
2022-09-17T07:34:59.323Z,11.47
2022-09-17T07:37:28.770Z,11.48
2022-09-17T07:39:56.999Z,11.51
2022-09-17T07:42:25.611Z,11.53
2022-09-17T07:44:55.002Z,11.66
2022-09-17T07:47:24.394Z,11.91
2022-09-17T07:49:52.217Z,12.05
2022-09-17T07:52:20.095Z,12.14
2022-09-17T07:54:48.716Z,12.30
2022-09-17T07:57:16.497Z,12.51
2022-09-17T07:59:44.367Z,12.64
2022-09-17T08:02:14.400Z,12.65
2022-09-17T08:04:43.970Z,12.63
2022-09-17T08:07:13.390Z,12.67
2022-09-17T08:09:41.213Z,12.58
2022-09-17T08:12:09.120Z,12.45
2022-09-17T08:14:36.888Z,12.34
2022-09-17T08:17:07.490Z,12.36
2022-09-17T08:19:35.442Z,12.37
2022-09-17T08:22:03.301Z,12.38
2022-09-17T08:24:31.230Z,12.46
2022-09-17T08:26:59.053Z,12.61
2022-09-17T08:29:27.306Z,12.79
2022-09-17T08:31:55.131Z,12.91
2022-09-17T08:34:22.928Z,13.03
2022-09-17T08:36:50.755Z,13.18
2022-09-17T08:39:18.586Z,13.26
2022-09-17T08:42:09.588Z,13.30
2022-09-17T08:44:43.591Z,13.37
2022-09-17T08:47:21.645Z,13.31
2022-09-17T08:49:58.961Z,13.20
2022-09-17T08:52:46.179Z,13.23
2022-09-17T08:55:37.436Z,13.31
2022-09-17T08:58:20.473Z,13.46
2022-09-17T09:01:26.158Z,13.71
2022-09-17T09:04:29.317Z,13.84
2022-09-17T09:07:02.863Z,13.95
2022-09-17T09:09:38.913Z,14.07
2022-09-17T09:12:24.593Z,14.23
2022-09-17T09:15:00.360Z,14.42
2022-09-17T09:17:38.562Z,14.55
2022-09-17T09:20:17.390Z,14.55
2022-09-17T09:22:50.899Z,14.44
2022-09-17T09:25:30.546Z,14.30
2022-09-17T09:28:32.126Z,14.27
2022-09-17T09:31:24.805Z,14.21
2022-09-17T09:33:52.988Z,14.06
2022-09-17T09:36:21.828Z,14.01
2022-09-17T09:39:16.059Z,14.04
2022-09-17T09:41:48.182Z,14.07
2022-09-17T09:44:17.089Z,14.18
2022-09-17T09:46:57.885Z,14.19
2022-09-17T09:49:32.038Z,14.24
2022-09-17T09:52:21.709Z,14.29
2022-09-17T09:55:00.244Z,14.28
2022-09-17T09:57:55.262Z,14.22
2022-09-17T10:00:38.995Z,14.27
2022-09-17T10:03:23.493Z,14.26
2022-09-17T10:06:01.592Z,14.29
2022-09-17T10:08:37.925Z,14.33
2022-09-17T10:11:13.136Z,14.48
2022-09-17T10:13:41.037Z,14.69
2022-09-17T10:16:26.238Z,14.93
2022-09-17T10:19:06.630Z,15.20
2022-09-17T10:21:40.457Z,15.43
2022-09-17T10:24:27.045Z,15.54
2022-09-17T10:27:03.020Z,15.66
2022-09-17T10:29:31.737Z,15.74
2022-09-17T10:32:00.113Z,15.63
2022-09-17T10:34:31.857Z,15.48
2022-09-17T10:37:00.071Z,15.29
2022-09-17T10:39:36.565Z,15.06
2022-09-17T10:42:04.803Z,14.69
2022-09-17T10:44:37.292Z,14.43
2022-09-17T10:47:14.348Z,14.18
2022-09-17T10:50:02.692Z,13.94
2022-09-17T10:52:38.279Z,13.62
2022-09-17T10:55:27.870Z,13.37
2022-09-17T10:58:11.926Z,13.13
2022-09-17T11:01:08.040Z,13.01
2022-09-17T11:04:00.994Z,12.91
2022-09-17T11:06:47.514Z,12.87
2022-09-17T11:09:39.776Z,12.80
2022-09-17T11:12:39.492Z,12.70
2022-09-17T11:15:23.017Z,12.61
2022-09-17T11:17:59.848Z,12.54
2022-09-17T11:20:49.501Z,12.50
2022-09-17T11:23:53.997Z,12.49
2022-09-17T11:26:40.770Z,12.44
2022-09-17T11:29:46.566Z,12.43
2022-09-17T11:32:35.078Z,12.39
2022-09-17T11:35:12.022Z,12.40
2022-09-17T11:37:43.570Z,12.47
2022-09-17T11:40:12.381Z,12.61
2022-09-17T11:42:49.979Z,12.78
2022-09-17T11:45:28.378Z,12.99
2022-09-17T11:48:20.628Z,13.24
2022-09-17T11:50:57.251Z,13.53
2022-09-17T11:53:51.895Z,13.81
2022-09-17T11:56:42.992Z,14.15
2022-09-17T11:59:28.506Z,14.48
2022-09-17T12:02:02.510Z,14.86
2022-09-17T12:04:55.321Z,15.21
2022-09-17T12:07:33.878Z,15.37
2022-09-17T12:10:41.767Z,15.46
2022-09-17T12:13:52.077Z,15.66
2022-09-17T12:16:29.116Z,15.68
2022-09-17T12:19:07.783Z,15.76
2022-09-17T12:21:48.965Z,15.86
2022-09-17T12:24:26.247Z,15.92
2022-09-17T12:27:17.132Z,16.00
2022-09-17T12:30:28.792Z,16.01
2022-09-17T12:33:14.075Z,16.03
2022-09-17T12:36:03.543Z,16.11
2022-09-17T12:39:02.069Z,16.12
2022-09-17T12:41:53.969Z,16.22
2022-09-17T12:44:43.739Z,16.32
2022-09-17T12:47:26.955Z,16.36
2022-09-17T12:50:27.080Z,16.40
2022-09-17T12:53:16.704Z,16.23
2022-09-17T12:56:08.319Z,16.18
2022-09-17T12:59:03.695Z,16.16
2022-09-17T13:01:34.757Z,16.34
2022-09-17T13:04:17.362Z,16.50
2022-09-17T13:07:04.234Z,16.47
2022-09-17T13:10:09.294Z,16.23
2022-09-17T13:12:45.346Z,16.13
2022-09-17T13:15:38.970Z,16.09
2022-09-17T13:18:27.025Z,15.87
2022-09-17T13:21:21.020Z,15.65
2022-09-17T13:23:51.531Z,15.37
2022-09-17T13:26:23.304Z,15.28
2022-09-17T13:28:52.830Z,15.07
2022-09-17T13:31:23.370Z,14.95
2022-09-17T13:33:59.318Z,14.82
2022-09-17T13:36:34.227Z,14.65
2022-09-17T13:39:04.120Z,14.52
2022-09-17T13:41:36.824Z,14.46
2022-09-17T13:44:06.226Z,14.43
2022-09-17T13:46:36.408Z,14.52
2022-09-17T13:49:13.175Z,14.74
2022-09-17T13:51:40.855Z,14.82
2022-09-17T13:54:11.439Z,14.87
2022-09-17T13:56:43.702Z,14.98
2022-09-17T13:59:27.418Z,15.00
2022-09-17T14:02:01.680Z,14.96
2022-09-17T14:04:49.072Z,15.04
2022-09-17T14:07:26.765Z,15.08
2022-09-17T14:09:56.300Z,15.02
2022-09-17T14:12:41.409Z,15.04
2022-09-17T14:15:33.842Z,15.16
2022-09-17T14:18:06.141Z,15.36
2022-09-17T14:20:34.540Z,15.46
2022-09-17T14:23:03.527Z,15.48
2022-09-17T14:25:55.453Z,15.49
2022-09-17T14:28:48.184Z,15.51
2022-09-17T14:31:22.067Z,15.46
2022-09-17T14:33:50.004Z,15.45
2022-09-17T14:36:22.068Z,15.47
2022-09-17T14:38:53.915Z,15.53
2022-09-17T14:41:25.917Z,15.52
2022-09-17T14:44:08.406Z,15.44
2022-09-17T14:46:51.754Z,15.43
2022-09-17T14:49:40.067Z,15.42
2022-09-17T14:52:23.971Z,15.37
2022-09-17T14:55:18.159Z,15.28
2022-09-17T14:57:49.535Z,15.14
2022-09-17T15:00:38.330Z,15.19
2022-09-17T15:03:06.980Z,15.25
2022-09-17T15:05:42.671Z,15.30
2022-09-17T15:08:10.399Z,15.29
2022-09-17T15:10:49.686Z,15.27
2022-09-17T15:13:26.722Z,15.26
2022-09-17T15:16:12.800Z,15.22
2022-09-17T15:18:43.914Z,15.18
2022-09-17T15:21:29.939Z,15.07
2022-09-17T15:24:05.704Z,14.95
2022-09-17T15:26:40.203Z,14.82
2022-09-17T15:29:14.140Z,14.79
2022-09-17T15:31:42.490Z,14.73
2022-09-17T15:34:12.541Z,14.71
2022-09-17T15:36:40.388Z,14.73
2022-09-17T15:39:32.055Z,14.71
2022-09-17T15:42:00.450Z,14.65
2022-09-17T15:44:30.801Z,14.64
2022-09-17T15:47:38.737Z,14.62
2022-09-17T15:50:28.094Z,14.46
2022-09-17T15:53:05.516Z,14.43
2022-09-17T15:55:42.904Z,14.46
2022-09-17T15:58:27.895Z,14.51
2022-09-17T16:01:17.417Z,14.64
2022-09-17T16:04:03.010Z,14.78
2022-09-17T16:06:32.926Z,14.89
2022-09-17T16:09:01.506Z,14.94
2022-09-17T16:11:31.643Z,15.05
2022-09-17T16:14:01.158Z,15.26
2022-09-17T16:16:37.915Z,15.11
2022-09-17T16:19:06.626Z,15.03
2022-09-17T16:21:36.013Z,14.94
2022-09-17T16:24:03.829Z,14.75
2022-09-17T16:26:33.895Z,14.62
2022-09-17T16:29:16.537Z,14.58
2022-09-17T16:31:45.069Z,14.52
2022-09-17T16:34:12.984Z,14.45
2022-09-17T16:36:40.811Z,14.38
2022-09-17T16:39:08.618Z,14.29
2022-09-17T16:41:36.320Z,14.20
2022-09-17T16:44:04.053Z,14.09
2022-09-17T16:46:31.891Z,13.96
2022-09-17T16:49:00.707Z,13.83
2022-09-17T16:51:28.768Z,13.75
2022-09-17T16:53:57.834Z,13.66
2022-09-17T16:56:25.600Z,13.59
2022-09-17T16:58:56.872Z,13.52
2022-09-17T17:01:24.736Z,13.47
2022-09-17T17:03:54.225Z,13.42
2022-09-17T17:06:22.742Z,13.35
2022-09-17T17:08:51.806Z,13.29
2022-09-17T17:11:19.586Z,13.21
2022-09-17T17:13:47.801Z,13.17
2022-09-17T17:16:16.392Z,13.10
2022-09-17T17:18:45.021Z,13.04
2022-09-17T17:21:14.334Z,12.97
2022-09-17T17:23:47.308Z,12.92
2022-09-17T17:26:16.676Z,12.86
2022-09-17T17:28:44.662Z,12.80
2022-09-17T17:31:12.667Z,12.76
2022-09-17T17:33:40.503Z,12.71
2022-09-17T17:36:09.566Z,12.66
2022-09-17T17:38:37.437Z,12.61
2022-09-17T17:41:15.649Z,12.56
2022-09-17T17:43:43.727Z,12.57
2022-09-17T17:46:12.800Z,12.54
2022-09-17T17:48:40.577Z,12.53
2022-09-17T17:51:10.258Z,12.52
2022-09-17T17:53:42.732Z,12.49
2022-09-17T17:56:11.990Z,12.48
2022-09-17T17:58:41.334Z,12.45
2022-09-17T18:01:12.376Z,12.39
2022-09-17T18:03:40.353Z,12.35
2022-09-17T18:06:08.406Z,12.32
2022-09-17T18:08:40.578Z,12.27
2022-09-17T18:11:09.893Z,12.23
2022-09-17T18:13:39.357Z,12.22
2022-09-17T18:16:09.251Z,12.21
2022-09-17T18:18:44.650Z,12.16
2022-09-17T18:21:15.904Z,12.13
2022-09-17T18:23:44.948Z,12.06
2022-09-17T18:26:15.538Z,11.99
2022-09-17T18:28:43.499Z,11.94
2022-09-17T18:31:20.299Z,11.89
2022-09-17T18:33:49.828Z,11.85
2022-09-17T18:36:17.621Z,11.82
2022-09-17T18:38:45.494Z,11.80
2022-09-17T18:41:13.736Z,11.80
2022-09-17T18:43:41.668Z,11.81
2022-09-17T18:46:09.633Z,11.79
2022-09-17T18:48:37.498Z,11.79
2022-09-17T18:51:08.724Z,11.76
2022-09-17T18:53:38.250Z,11.73
2022-09-17T18:56:13.523Z,11.70
2022-09-17T18:58:41.404Z,11.67
2022-09-17T19:01:09.282Z,11.62
2022-09-17T19:03:37.720Z,11.56
2022-09-17T19:06:08.287Z,11.49
2022-09-17T19:08:37.420Z,11.40
2022-09-17T19:11:05.924Z,11.32
2022-09-17T19:13:39.287Z,11.22
2022-09-17T19:16:09.050Z,11.12
2022-09-17T19:18:39.551Z,11.04
2022-09-17T19:21:13.126Z,10.96
2022-09-17T19:23:46.962Z,10.85
2022-09-17T19:26:22.876Z,10.77
2022-09-17T19:28:58.679Z,10.68
2022-09-17T19:31:27.839Z,10.61
2022-09-17T19:33:57.062Z,10.53
2022-09-17T19:36:26.252Z,10.47
2022-09-17T19:38:54.392Z,10.40
2022-09-17T19:41:23.388Z,10.32
2022-09-17T19:43:58.024Z,10.22
2022-09-17T19:46:26.986Z,10.11
2022-09-17T19:48:57.406Z,10.01
2022-09-17T19:51:29.745Z,9.97
2022-09-17T19:53:58.264Z,9.89
2022-09-17T19:56:27.968Z,9.86
2022-09-17T19:58:56.928Z,9.82
2022-09-17T20:01:25.344Z,9.77
2022-09-17T20:03:55.992Z,9.73
2022-09-17T20:06:24.171Z,9.69
2022-09-17T20:08:54.082Z,9.65
2022-09-17T20:11:24.633Z,9.60
2022-09-17T20:14:06.655Z,9.57
2022-09-17T20:16:38.490Z,9.54
2022-09-17T20:19:08.156Z,9.49
2022-09-17T20:21:36.144Z,9.46
2022-09-17T20:24:06.266Z,9.42
2022-09-17T20:26:35.026Z,9.38
2022-09-17T20:29:03.998Z,9.33
2022-09-17T20:31:33.405Z,9.30
2022-09-17T20:34:03.118Z,9.25
2022-09-17T20:36:35.475Z,9.24
2022-09-17T20:39:22.676Z,9.20
2022-09-17T20:41:51.224Z,9.14
2022-09-17T20:44:20.359Z,9.10
2022-09-17T20:46:48.288Z,9.06
2022-09-17T20:49:16.278Z,9.02
2022-09-17T20:51:44.128Z,8.97
2022-09-17T20:54:12.213Z,8.92
2022-09-17T20:56:40.449Z,8.91
2022-09-17T20:59:25.052Z,8.87
2022-09-17T21:01:53.761Z,8.83
2022-09-17T21:04:22.256Z,8.80
2022-09-17T21:06:53.995Z,8.77
2022-09-17T21:09:21.848Z,8.73
2022-09-17T21:11:49.788Z,8.69
2022-09-17T21:14:18.431Z,8.64
2022-09-17T21:16:46.834Z,8.60
2022-09-17T21:19:16.766Z,8.57
2022-09-17T21:21:48.096Z,8.54
2022-09-17T21:24:16.016Z,8.50
2022-09-17T21:26:45.949Z,8.46
2022-09-17T21:29:13.959Z,8.42
2022-09-17T21:31:41.831Z,8.39
2022-09-17T21:34:12.890Z,8.36
2022-09-17T21:36:44.406Z,8.33
2022-09-17T21:39:15.311Z,8.30
2022-09-17T21:41:44.969Z,8.26
2022-09-17T21:44:13.830Z,8.26
2022-09-17T21:46:43.215Z,8.23
2022-09-17T21:49:13.597Z,8.20
2022-09-17T21:51:43.333Z,8.20
2022-09-17T21:54:15.389Z,8.20
2022-09-17T21:56:44.266Z,8.19
2022-09-17T21:59:14.690Z,8.16
2022-09-17T22:01:46.858Z,8.15
2022-09-17T22:04:17.872Z,8.12
2022-09-17T22:06:48.108Z,8.11
2022-09-17T22:09:22.255Z,8.09
2022-09-17T22:11:51.842Z,8.07
2022-09-17T22:14:22.029Z,8.05
2022-09-17T22:16:53.163Z,8.03
2022-09-17T22:19:22.369Z,8.01
2022-09-17T22:21:52.497Z,7.98
2022-09-17T22:24:21.911Z,7.97
2022-09-17T22:26:56.917Z,7.94
2022-09-17T22:29:28.301Z,7.92
2022-09-17T22:31:57.468Z,7.91
2022-09-17T22:34:26.556Z,7.91
2022-09-17T22:36:54.439Z,7.91
2022-09-17T22:39:22.736Z,7.89
2022-09-17T22:41:51.167Z,7.89
2022-09-17T22:44:20.258Z,7.88
2022-09-17T22:46:51.473Z,7.87
2022-09-17T22:49:19.729Z,7.85
2022-09-17T22:51:48.265Z,7.83
2022-09-17T22:54:18.052Z,7.78
2022-09-17T22:56:48.002Z,7.81
2022-09-17T22:59:16.519Z,7.81
2022-09-17T23:01:44.511Z,7.79
2022-09-17T23:04:12.473Z,7.80
2022-09-17T23:06:44.014Z,7.78
2022-09-17T23:09:14.116Z,7.77
2022-09-17T23:11:43.082Z,7.74
2022-09-17T23:14:13.259Z,7.71
2022-09-17T23:16:47.319Z,7.70
2022-09-17T23:19:18.809Z,7.68
2022-09-17T23:21:46.737Z,7.65
2022-09-17T23:24:20.430Z,7.60
2022-09-17T23:26:49.505Z,7.54
2022-09-17T23:29:18.596Z,7.48
2022-09-17T23:31:46.432Z,7.41
2022-09-17T23:34:14.286Z,7.35
2022-09-17T23:36:42.161Z,7.32
2022-09-17T23:39:11.830Z,7.29
2022-09-17T23:41:43.487Z,7.29
2022-09-17T23:44:15.683Z,7.27
2022-09-17T23:46:46.342Z,7.26
2022-09-17T23:49:15.886Z,7.24
2022-09-17T23:51:44.845Z,7.21
2022-09-17T23:54:12.700Z,7.19
2022-09-17T23:56:40.778Z,7.14
2022-09-17T23:59:10.858Z,7.14
